createdAt,value
2022-10-18T00:07:35.956Z,8.84
2022-10-18T00:17:39.313Z,8.61
2022-10-18T00:27:41.133Z,8.58
2022-10-18T00:37:42.946Z,8.44
2022-10-18T00:47:53.553Z,8.47
2022-10-18T00:57:58.338Z,8.40
2022-10-18T01:08:27.995Z,8.37
2022-10-18T01:18:54.491Z,8.37
2022-10-18T01:29:15.795Z,8.25
2022-10-18T01:39:40.207Z,8.27
2022-10-18T01:49:43.897Z,8.07
2022-10-18T01:59:59.056Z,8.03
2022-10-18T02:20:26.327Z,7.84
2022-10-18T02:31:10.891Z,7.69
2022-10-18T02:41:22.315Z,7.69
2022-10-18T02:51:29.092Z,7.61
2022-10-18T03:01:30.980Z,7.62
2022-10-18T03:11:33.044Z,7.49
2022-10-18T03:21:34.739Z,7.51
2022-10-18T03:31:36.542Z,7.51
2022-10-18T03:41:38.132Z,7.45
2022-10-18T03:51:41.859Z,7.38
2022-10-18T04:01:43.370Z,7.27
2022-10-18T04:11:47.743Z,7.13
2022-10-18T04:21:51.429Z,7.15
2022-10-18T04:31:53.208Z,7.03
2022-10-18T04:41:56.874Z,7.12
2022-10-18T04:51:59.394Z,6.97
2022-10-18T05:02:01.075Z,6.89
2022-10-18T05:12:02.784Z,7.09
2022-10-18T05:22:04.430Z,7.07
2022-10-18T05:32:06.026Z,7.12
2022-10-18T05:42:08.357Z,7.16
2022-10-18T05:52:09.942Z,7.24
2022-10-18T06:02:13.088Z,7.42
2022-10-18T06:12:14.781Z,7.80
2022-10-18T06:22:19.722Z,8.09
2022-10-18T06:32:25.760Z,8.48
2022-10-18T06:42:27.299Z,8.91
2022-10-18T06:52:30.030Z,9.30
2022-10-18T07:02:32.108Z,9.70
2022-10-18T07:12:34.380Z,10.22
2022-10-18T07:22:38.201Z,10.72
2022-10-18T07:32:40.019Z,11.36
2022-10-18T07:42:41.563Z,11.85
2022-10-18T07:52:43.191Z,13.11
2022-10-18T08:02:44.888Z,14.54
2022-10-18T08:12:51.813Z,15.71
2022-10-18T08:22:57.713Z,16.60
2022-10-18T08:33:02.366Z,17.28
2022-10-18T08:43:09.022Z,18.39
2022-10-18T08:53:19.519Z,18.72
2022-10-18T09:03:56.192Z,19.51
2022-10-18T09:14:35.102Z,19.91
2022-10-18T09:24:50.975Z,20.94
2022-10-18T09:35:20.004Z,22.58
2022-10-18T09:45:32.726Z,22.84
2022-10-18T09:55:43.199Z,22.88
2022-10-18T10:05:45.454Z,23.95
2022-10-18T10:15:56.787Z,24.92
2022-10-18T10:26:02.744Z,24.94
2022-10-18T10:36:16.002Z,26.32
2022-10-18T10:46:21.633Z,25.78
2022-10-18T10:56:33.652Z,26.60
2022-10-18T11:07:01.671Z,27.19
2022-10-18T11:17:32.487Z,26.61
2022-10-18T11:27:55.410Z,29.31
2022-10-18T11:38:35.314Z,29.77
2022-10-18T11:49:00.138Z,29.85
2022-10-18T11:59:52.277Z,31.37
2022-10-18T12:09:55.610Z,32.72
2022-10-18T12:20:00.150Z,33.04
2022-10-18T12:30:34.676Z,32.97
2022-10-18T12:40:43.419Z,32.50
2022-10-18T12:50:45.101Z,34.97
2022-10-18T13:00:50.634Z,34.36
2022-10-18T13:11:27.518Z,36.04
2022-10-18T13:21:43.519Z,36.40
2022-10-18T13:32:11.023Z,37.36
2022-10-18T13:42:28.512Z,36.71
2022-10-18T13:53:05.524Z,33.66
2022-10-18T14:14:17.354Z,34.85
2022-10-18T14:24:25.869Z,33.75
2022-10-18T14:34:27.684Z,32.43
2022-10-18T14:44:35.562Z,24.69
2022-10-18T14:54:39.988Z,21.42
2022-10-18T15:04:44.915Z,20.34
2022-10-18T15:14:55.617Z,19.80
2022-10-18T15:25:30.806Z,19.34
2022-10-18T15:35:35.887Z,18.91
2022-10-18T15:45:45.550Z,18.40
2022-10-18T15:55:55.722Z,17.65
2022-10-18T16:06:05.594Z,17.27
2022-10-18T16:16:09.704Z,16.53
2022-10-18T16:26:12.999Z,15.88
2022-10-18T16:36:21.470Z,15.43
2022-10-18T16:46:28.699Z,14.86
2022-10-18T16:56:32.647Z,14.21
2022-10-18T17:06:38.392Z,13.98
2022-10-18T17:16:45.410Z,13.84
2022-10-18T17:26:51.442Z,13.39
2022-10-18T17:36:53.505Z,13.12
2022-10-18T17:46:55.530Z,12.88
2022-10-18T17:57:09.488Z,12.44
2022-10-18T18:07:13.584Z,12.23
2022-10-18T18:17:18.791Z,12.08
2022-10-18T18:27:23.453Z,11.88
2022-10-18T18:37:28.390Z,11.53
2022-10-18T18:47:30.552Z,11.69
2022-10-18T18:57:33.199Z,11.34
2022-10-18T19:07:38.520Z,11.19
2022-10-18T19:17:47.563Z,11.10
2022-10-18T19:27:49.676Z,10.96
2022-10-18T19:37:51.913Z,10.80
2022-10-18T19:47:53.876Z,10.61
2022-10-18T19:57:55.808Z,10.45
2022-10-18T20:07:58.506Z,10.42
2022-10-18T20:18:02.374Z,10.16
2022-10-18T20:28:04.946Z,10.13
2022-10-18T20:38:08.633Z,9.98
2022-10-18T20:48:10.321Z,9.81
2022-10-18T20:58:12.463Z,9.77
2022-10-18T21:08:16.112Z,9.59
2022-10-18T21:18:17.752Z,9.54
2022-10-18T21:28:19.320Z,9.56
2022-10-18T21:38:21.946Z,9.35
2022-10-18T21:48:23.613Z,9.17
2022-10-18T21:58:26.231Z,9.13
2022-10-18T22:08:29.150Z,9.44
2022-10-18T22:18:33.994Z,9.62
2022-10-18T22:28:36.402Z,9.72
2022-10-18T22:38:38.974Z,9.85
2022-10-18T22:48:42.259Z,9.95
2022-10-18T22:58:44.914Z,10.05
2022-10-18T23:08:46.967Z,10.11
2022-10-18T23:18:54.162Z,10.00
2022-10-18T23:28:56.291Z,10.11
2022-10-18T23:38:59.214Z,9.98
2022-10-18T23:49:00.798Z,9.65
2022-10-18T23:59:02.647Z,9.55
